sensor_id;sensor_type;location;lat;lon;timestamp;P1;durP1;ratioP1;P2;durP2;ratioP2
78895;SDS011;68284;59.124;37.910;2023-08-30T00:02:11;5.05;;;3.47;;
78895;SDS011;68284;59.124;37.910;2023-08-30T00:04:37;5.68;;;5.07;;
78895;SDS011;68284;59.124;37.910;2023-08-30T00:07:05;6.03;;;4.03;;
78895;SDS011;68284;59.124;37.910;2023-08-30T00:09:31;7.80;;;4.88;;
78895;SDS011;68284;59.124;37.910;2023-08-30T00:11:58;4.53;;;3.53;;
78895;SDS011;68284;59.124;37.910;2023-08-30T00:14:26;5.05;;;4.55;;
78895;SDS011;68284;59.124;37.910;2023-08-30T00:16:52;5.68;;;4.88;;
78895;SDS011;68284;59.124;37.910;2023-08-30T00:21:45;4.93;;;4.43;;
78895;SDS011;68284;59.124;37.910;2023-08-30T00:24:12;5.95;;;4.75;;
78895;SDS011;68284;59.124;37.910;2023-08-30T00:29:06;5.45;;;4.95;;
78895;SDS011;68284;59.124;37.910;2023-08-30T00:31:32;6.13;;;3.70;;
78895;SDS011;68284;59.124;37.910;2023-08-30T00:36:25;6.13;;;4.75;;
78895;SDS011;68284;59.124;37.910;2023-08-30T00:38:52;4.38;;;3.50;;
78895;SDS011;68284;59.124;37.910;2023-08-30T00:41:19;5.78;;;4.38;;
78895;SDS011;68284;59.124;37.910;2023-08-30T00:43:46;6.10;;;4.72;;
78895;SDS011;68284;59.124;37.910;2023-08-30T00:46:14;5.90;;;4.80;;
78895;SDS011;68284;59.124;37.910;2023-08-30T00:48:41;4.72;;;4.10;;
78895;SDS011;68284;59.124;37.910;2023-08-30T00:51:10;5.82;;;4.78;;
78895;SDS011;68284;59.124;37.910;2023-08-30T00:53:37;6.05;;;3.75;;
78895;SDS011;68284;59.124;37.910;2023-08-30T00:56:03;5.55;;;4.20;;
78895;SDS011;68284;59.124;37.910;2023-08-30T00:58:31;5.80;;;4.15;;
78895;SDS011;68284;59.124;37.910;2023-08-30T01:00:59;6.28;;;4.78;;
78895;SDS011;68284;59.124;37.910;2023-08-30T01:03:25;4.82;;;3.67;;
78895;SDS011;68284;59.124;37.910;2023-08-30T01:05:54;5.30;;;4.45;;
78895;SDS011;68284;59.124;37.910;2023-08-30T01:08:22;6.18;;;4.95;;
78895;SDS011;68284;59.124;37.910;2023-08-30T01:14:11;6.35;;;4.80;;
78895;SDS011;68284;59.124;37.910;2023-08-30T01:16:35;6.97;;;5.50;;
78895;SDS011;68284;59.124;37.910;2023-08-30T01:19:12;5.47;;;4.07;;
78895;SDS011;68284;59.124;37.910;2023-08-30T01:21:56;5.35;;;4.18;;
78895;SDS011;68284;59.124;37.910;2023-08-30T01:24:32;6.72;;;4.40;;
78895;SDS011;68284;59.124;37.910;2023-08-30T01:27:21;6.05;;;4.47;;
78895;SDS011;68284;59.124;37.910;2023-08-30T01:29:50;7.63;;;3.78;;
78895;SDS011;68284;59.124;37.910;2023-08-30T01:32:21;7.05;;;4.30;;
78895;SDS011;68284;59.124;37.910;2023-08-30T01:34:51;4.97;;;4.30;;
78895;SDS011;68284;59.124;37.910;2023-08-30T01:37:19;6.10;;;5.38;;
78895;SDS011;68284;59.124;37.910;2023-08-30T01:39:48;5.00;;;4.00;;
78895;SDS011;68284;59.124;37.910;2023-08-30T01:42:16;5.93;;;5.03;;
78895;SDS011;68284;59.124;37.910;2023-08-30T01:44:49;5.82;;;5.22;;
78895;SDS011;68284;59.124;37.910;2023-08-30T01:47:20;6.18;;;5.22;;
78895;SDS011;68284;59.124;37.910;2023-08-30T01:49:48;6.28;;;4.47;;
78895;SDS011;68284;59.124;37.910;2023-08-30T01:52:16;5.50;;;3.92;;
78895;SDS011;68284;59.124;37.910;2023-08-30T01:54:44;5.45;;;3.90;;
78895;SDS011;68284;59.124;37.910;2023-08-30T01:57:11;8.48;;;4.70;;
78895;SDS011;68284;59.124;37.910;2023-08-30T01:59:39;8.10;;;6.20;;
78895;SDS011;68284;59.124;37.910;2023-08-30T02:04:34;6.65;;;4.93;;
78895;SDS011;68284;59.124;37.910;2023-08-30T02:07:05;6.47;;;4.90;;
78895;SDS011;68284;59.124;37.910;2023-08-30T02:09:45;6.50;;;4.97;;
78895;SDS011;68284;59.124;37.910;2023-08-30T02:12:18;6.20;;;4.40;;
78895;SDS011;68284;59.124;37.910;2023-08-30T02:14:47;6.30;;;5.25;;
78895;SDS011;68284;59.124;37.910;2023-08-30T02:17:15;6.80;;;5.72;;
78895;SDS011;68284;59.124;37.910;2023-08-30T02:19:43;6.13;;;4.68;;
78895;SDS011;68284;59.124;37.910;2023-08-30T02:22:10;7.70;;;6.30;;
78895;SDS011;68284;59.124;37.910;2023-08-30T02:24:38;9.30;;;6.07;;
78895;SDS011;68284;59.124;37.910;2023-08-30T02:27:06;8.95;;;5.63;;
78895;SDS011;68284;59.124;37.910;2023-08-30T02:29:33;9.02;;;5.32;;
78895;SDS011;68284;59.124;37.910;2023-08-30T02:32:01;11.13;;;6.32;;
78895;SDS011;68284;59.124;37.910;2023-08-30T02:34:28;9.95;;;6.03;;
78895;SDS011;68284;59.124;37.910;2023-08-30T02:36:55;9.70;;;7.55;;
78895;SDS011;68284;59.124;37.910;2023-08-30T02:39:24;13.13;;;6.63;;
78895;SDS011;68284;59.124;37.910;2023-08-30T02:41:51;28.67;;;7.60;;
78895;SDS011;68284;59.124;37.910;2023-08-30T02:44:18;97.00;;;11.00;;
78895;SDS011;68284;59.124;37.910;2023-08-30T02:46:47;76.47;;;9.98;;
78895;SDS011;68284;59.124;37.910;2023-08-30T02:49:13;112.70;;;14.82;;
78895;SDS011;68284;59.124;37.910;2023-08-30T02:51:40;74.68;;;11.40;;
78895;SDS011;68284;59.124;37.910;2023-08-30T02:54:09;85.75;;;13.52;;
78895;SDS011;68284;59.124;37.910;2023-08-30T02:56:39;120.95;;;12.95;;
78895;SDS011;68284;59.124;37.910;2023-08-30T02:59:09;70.93;;;9.60;;
78895;SDS011;68284;59.124;37.910;2023-08-30T03:01:40;74.97;;;10.80;;
78895;SDS011;68284;59.124;37.910;2023-08-30T03:04:08;50.00;;;8.40;;
78895;SDS011;68284;59.124;37.910;2023-08-30T03:06:35;47.00;;;8.85;;
78895;SDS011;68284;59.124;37.910;2023-08-30T03:09:02;32.88;;;8.00;;
78895;SDS011;68284;59.124;37.910;2023-08-30T03:11:31;69.47;;;9.10;;
78895;SDS011;68284;59.124;37.910;2023-08-30T03:13:58;32.90;;;8.85;;
78895;SDS011;68284;59.124;37.910;2023-08-30T03:16:24;81.00;;;13.15;;
78895;SDS011;68284;59.124;37.910;2023-08-30T03:18:52;66.38;;;11.20;;
78895;SDS011;68284;59.124;37.910;2023-08-30T03:21:18;48.22;;;10.95;;
78895;SDS011;68284;59.124;37.910;2023-08-30T03:23:46;30.98;;;9.43;;
78895;SDS011;68284;59.124;37.910;2023-08-30T03:26:12;68.72;;;12.85;;
78895;SDS011;68284;59.124;37.910;2023-08-30T03:28:41;34.63;;;9.27;;
78895;SDS011;68284;59.124;37.910;2023-08-30T03:33:43;17.58;;;6.40;;
78895;SDS011;68284;59.124;37.910;2023-08-30T03:36:13;56.00;;;9.30;;
78895;SDS011;68284;59.124;37.910;2023-08-30T03:38:41;73.22;;;9.88;;
78895;SDS011;68284;59.124;37.910;2023-08-30T03:41:10;97.25;;;11.13;;
78895;SDS011;68284;59.124;37.910;2023-08-30T03:43:37;60.67;;;9.38;;
78895;SDS011;68284;59.124;37.910;2023-08-30T03:46:03;24.15;;;5.30;;
78895;SDS011;68284;59.124;37.910;2023-08-30T03:48:30;36.75;;;7.95;;
78895;SDS011;68284;59.124;37.910;2023-08-30T03:50:58;44.42;;;6.75;;
78895;SDS011;68284;59.124;37.910;2023-08-30T03:53:26;51.50;;;6.88;;
78895;SDS011;68284;59.124;37.910;2023-08-30T03:55:53;16.38;;;4.22;;
78895;SDS011;68284;59.124;37.910;2023-08-30T03:58:19;26.63;;;5.70;;
78895;SDS011;68284;59.124;37.910;2023-08-30T04:00:46;33.30;;;5.32;;
78895;SDS011;68284;59.124;37.910;2023-08-30T04:03:14;47.70;;;7.38;;
78895;SDS011;68284;59.124;37.910;2023-08-30T04:05:42;53.88;;;6.45;;
78895;SDS011;68284;59.124;37.910;2023-08-30T04:08:09;49.92;;;6.20;;
78895;SDS011;68284;59.124;37.910;2023-08-30T04:10:36;23.98;;;4.25;;
78895;SDS011;68284;59.124;37.910;2023-08-30T04:13:07;30.42;;;5.38;;
78895;SDS011;68284;59.124;37.910;2023-08-30T04:15:37;35.03;;;5.47;;
78895;SDS011;68284;59.124;37.910;2023-08-30T04:18:05;12.43;;;4.53;;
78895;SDS011;68284;59.124;37.910;2023-08-30T04:20:33;35.17;;;5.07;;
78895;SDS011;68284;59.124;37.910;2023-08-30T04:23:01;30.55;;;5.53;;
78895;SDS011;68284;59.124;37.910;2023-08-30T04:25:28;41.75;;;5.47;;
78895;SDS011;68284;59.124;37.910;2023-08-30T04:27:58;41.15;;;4.28;;
78895;SDS011;68284;59.124;37.910;2023-08-30T04:30:27;64.50;;;5.30;;
78895;SDS011;68284;59.124;37.910;2023-08-30T04:32:55;44.38;;;4.28;;
78895;SDS011;68284;59.124;37.910;2023-08-30T04:35:23;87.07;;;5.60;;
78895;SDS011;68284;59.124;37.910;2023-08-30T04:37:50;68.95;;;5.38;;
78895;SDS011;68284;59.124;37.910;2023-08-30T04:40:18;79.78;;;6.28;;
78895;SDS011;68284;59.124;37.910;2023-08-30T04:42:45;78.13;;;4.70;;
78895;SDS011;68284;59.124;37.910;2023-08-30T04:45:13;58.83;;;5.18;;
78895;SDS011;68284;59.124;37.910;2023-08-30T04:47:39;59.83;;;5.05;;
78895;SDS011;68284;59.124;37.910;2023-08-30T04:50:08;62.42;;;6.13;;
78895;SDS011;68284;59.124;37.910;2023-08-30T04:52:35;95.78;;;6.07;;
78895;SDS011;68284;59.124;37.910;2023-08-30T04:57:29;68.85;;;5.30;;
78895;SDS011;68284;59.124;37.910;2023-08-30T04:59:56;74.03;;;5.75;;
78895;SDS011;68284;59.124;37.910;2023-08-30T05:02:23;55.90;;;4.75;;
78895;SDS011;68284;59.124;37.910;2023-08-30T05:04:59;56.88;;;5.97;;
78895;SDS011;68284;59.124;37.910;2023-08-30T05:07:26;80.28;;;6.30;;
78895;SDS011;68284;59.124;37.910;2023-08-30T05:09:53;71.15;;;4.82;;
78895;SDS011;68284;59.124;37.910;2023-08-30T05:12:19;47.55;;;4.25;;
78895;SDS011;68284;59.124;37.910;2023-08-30T05:14:45;112.22;;;7.40;;
78895;SDS011;68284;59.124;37.910;2023-08-30T05:17:12;89.10;;;5.85;;
78895;SDS011;68284;59.124;37.910;2023-08-30T05:19:38;56.40;;;4.72;;
78895;SDS011;68284;59.124;37.910;2023-08-30T05:22:04;87.97;;;8.95;;
78895;SDS011;68284;59.124;37.910;2023-08-30T05:24:31;137.48;;;8.18;;
78895;SDS011;68284;59.124;37.910;2023-08-30T05:26:57;68.60;;;7.00;;
78895;SDS011;68284;59.124;37.910;2023-08-30T05:29:25;98.75;;;8.90;;
78895;SDS011;68284;59.124;37.910;2023-08-30T05:31:53;117.15;;;8.02;;
78895;SDS011;68284;59.124;37.910;2023-08-30T05:34:38;95.75;;;7.75;;
78895;SDS011;68284;59.124;37.910;2023-08-30T05:37:27;79.28;;;7.45;;
78895;SDS011;68284;59.124;37.910;2023-08-30T05:40:03;86.93;;;8.50;;
78895;SDS011;68284;59.124;37.910;2023-08-30T05:42:29;125.85;;;10.43;;
78895;SDS011;68284;59.124;37.910;2023-08-30T05:44:56;74.63;;;7.40;;
78895;SDS011;68284;59.124;37.910;2023-08-30T05:47:23;61.08;;;7.28;;
78895;SDS011;68284;59.124;37.910;2023-08-30T05:49:50;86.65;;;8.45;;
78895;SDS011;68284;59.124;37.910;2023-08-30T05:52:17;57.95;;;7.10;;
78895;SDS011;68284;59.124;37.910;2023-08-30T05:54:44;37.75;;;6.13;;
78895;SDS011;68284;59.124;37.910;2023-08-30T05:57:10;60.33;;;8.35;;
78895;SDS011;68284;59.124;37.910;2023-08-30T05:59:37;74.03;;;7.32;;
78895;SDS011;68284;59.124;37.910;2023-08-30T06:02:03;54.08;;;8.13;;
78895;SDS011;68284;59.124;37.910;2023-08-30T06:04:30;46.38;;;9.27;;
78895;SDS011;68284;59.124;37.910;2023-08-30T06:06:57;69.15;;;8.38;;
78895;SDS011;68284;59.124;37.910;2023-08-30T06:09:23;48.58;;;7.18;;
78895;SDS011;68284;59.124;37.910;2023-08-30T06:11:50;37.83;;;7.65;;
78895;SDS011;68284;59.124;37.910;2023-08-30T06:14:16;40.90;;;6.85;;
78895;SDS011;68284;59.124;37.910;2023-08-30T06:16:43;80.95;;;8.23;;
78895;SDS011;68284;59.124;37.910;2023-08-30T06:19:10;32.47;;;7.28;;
78895;SDS011;68284;59.124;37.910;2023-08-30T06:21:37;52.47;;;8.13;;
78895;SDS011;68284;59.124;37.910;2023-08-30T06:24:03;77.60;;;7.80;;
78895;SDS011;68284;59.124;37.910;2023-08-30T06:26:32;19.88;;;6.53;;
78895;SDS011;68284;59.124;37.910;2023-08-30T06:28:58;17.15;;;7.25;;
78895;SDS011;68284;59.124;37.910;2023-08-30T06:31:25;10.75;;;6.50;;
78895;SDS011;68284;59.124;37.910;2023-08-30T06:33:52;9.50;;;6.82;;
78895;SDS011;68284;59.124;37.910;2023-08-30T06:36:19;9.05;;;6.15;;
78895;SDS011;68284;59.124;37.910;2023-08-30T06:38:49;8.55;;;5.28;;
78895;SDS011;68284;59.124;37.910;2023-08-30T06:41:16;6.78;;;4.85;;
78895;SDS011;68284;59.124;37.910;2023-08-30T06:43:43;10.10;;;5.07;;
78895;SDS011;68284;59.124;37.910;2023-08-30T06:46:09;9.23;;;5.32;;
78895;SDS011;68284;59.124;37.910;2023-08-30T06:48:36;5.93;;;5.32;;
78895;SDS011;68284;59.124;37.910;2023-08-30T06:51:02;7.72;;;6.10;;
78895;SDS011;68284;59.124;37.910;2023-08-30T06:53:29;6.15;;;4.85;;
78895;SDS011;68284;59.124;37.910;2023-08-30T06:56:00;7.68;;;6.22;;
78895;SDS011;68284;59.124;37.910;2023-08-30T06:58:27;5.30;;;4.47;;
78895;SDS011;68284;59.124;37.910;2023-08-30T07:00:53;6.00;;;4.93;;
78895;SDS011;68284;59.124;37.910;2023-08-30T07:03:20;7.22;;;4.35;;
78895;SDS011;68284;59.124;37.910;2023-08-30T07:05:47;5.80;;;4.97;;
78895;SDS011;68284;59.124;37.910;2023-08-30T07:08:21;11.30;;;6.07;;
78895;SDS011;68284;59.124;37.910;2023-08-30T07:10:48;6.13;;;4.25;;
78895;SDS011;68284;59.124;37.910;2023-08-30T07:13:15;6.03;;;4.90;;
78895;SDS011;68284;59.124;37.910;2023-08-30T07:15:41;5.50;;;4.15;;
78895;SDS011;68284;59.124;37.910;2023-08-30T07:18:09;6.15;;;4.20;;
78895;SDS011;68284;59.124;37.910;2023-08-30T07:20:38;8.32;;;4.90;;
78895;SDS011;68284;59.124;37.910;2023-08-30T07:23:04;4.93;;;4.00;;
78895;SDS011;68284;59.124;37.910;2023-08-30T07:25:40;7.90;;;5.25;;
78895;SDS011;68284;59.124;37.910;2023-08-30T07:28:20;11.52;;;5.30;;
78895;SDS011;68284;59.124;37.910;2023-08-30T07:30:49;6.70;;;4.97;;
78895;SDS011;68284;59.124;37.910;2023-08-30T07:33:22;6.03;;;4.75;;
78895;SDS011;68284;59.124;37.910;2023-08-30T07:36:01;5.75;;;4.95;;
78895;SDS011;68284;59.124;37.910;2023-08-30T07:38:47;10.95;;;5.72;;
78895;SDS011;68284;59.124;37.910;2023-08-30T07:41:18;9.02;;;5.18;;
78895;SDS011;68284;59.124;37.910;2023-08-30T07:43:57;17.23;;;8.45;;
78895;SDS011;68284;59.124;37.910;2023-08-30T07:46:24;13.88;;;6.63;;
78895;SDS011;68284;59.124;37.910;2023-08-30T07:48:55;15.55;;;9.15;;
78895;SDS011;68284;59.124;37.910;2023-08-30T07:51:26;7.13;;;5.20;;
78895;SDS011;68284;59.124;37.910;2023-08-30T07:54:02;7.15;;;5.30;;
78895;SDS011;68284;59.124;37.910;2023-08-30T07:56:30;12.98;;;6.95;;
78895;SDS011;68284;59.124;37.910;2023-08-30T07:58:56;11.57;;;6.50;;
78895;SDS011;68284;59.124;37.910;2023-08-30T08:01:25;8.77;;;5.75;;
78895;SDS011;68284;59.124;37.910;2023-08-30T08:03:51;14.45;;;6.07;;
78895;SDS011;68284;59.124;37.910;2023-08-30T08:06:17;10.00;;;5.97;;
78895;SDS011;68284;59.124;37.910;2023-08-30T08:08:44;8.25;;;7.45;;
78895;SDS011;68284;59.124;37.910;2023-08-30T08:11:10;9.20;;;5.32;;
78895;SDS011;68284;59.124;37.910;2023-08-30T08:13:37;10.98;;;5.70;;
78895;SDS011;68284;59.124;37.910;2023-08-30T08:16:05;8.25;;;5.95;;
78895;SDS011;68284;59.124;37.910;2023-08-30T08:18:33;7.13;;;5.95;;
78895;SDS011;68284;59.124;37.910;2023-08-30T08:21:01;9.02;;;5.93;;
78895;SDS011;68284;59.124;37.910;2023-08-30T08:23:29;7.20;;;5.43;;
78895;SDS011;68284;59.124;37.910;2023-08-30T08:25:58;6.95;;;5.07;;
78895;SDS011;68284;59.124;37.910;2023-08-30T08:28:25;14.18;;;6.38;;
78895;SDS011;68284;59.124;37.910;2023-08-30T08:30:52;8.05;;;7.25;;
78895;SDS011;68284;59.124;37.910;2023-08-30T08:33:20;5.88;;;4.55;;
78895;SDS011;68284;59.124;37.910;2023-08-30T08:35:49;8.02;;;6.72;;
78895;SDS011;68284;59.124;37.910;2023-08-30T08:38:18;6.90;;;5.38;;
78895;SDS011;68284;59.124;37.910;2023-08-30T08:43:38;9.00;;;6.93;;
78895;SDS011;68284;59.124;37.910;2023-08-30T08:46:06;6.28;;;5.60;;
78895;SDS011;68284;59.124;37.910;2023-08-30T08:48:39;5.72;;;4.60;;
78895;SDS011;68284;59.124;37.910;2023-08-30T08:51:09;8.07;;;5.53;;
78895;SDS011;68284;59.124;37.910;2023-08-30T08:53:38;7.03;;;4.15;;
78895;SDS011;68284;59.124;37.910;2023-08-30T08:56:06;5.50;;;5.05;;
78895;SDS011;68284;59.124;37.910;2023-08-30T08:58:35;10.45;;;4.97;;
78895;SDS011;68284;59.124;37.910;2023-08-30T09:01:03;8.07;;;4.05;;
78895;SDS011;68284;59.124;37.910;2023-08-30T09:03:32;5.07;;;4.55;;
78895;SDS011;68284;59.124;37.910;2023-08-30T09:06:00;6.22;;;4.47;;
78895;SDS011;68284;59.124;37.910;2023-08-30T09:08:28;4.65;;;3.90;;
78895;SDS011;68284;59.124;37.910;2023-08-30T09:10:55;3.42;;;3.13;;
78895;SDS011;68284;59.124;37.910;2023-08-30T09:13:21;4.55;;;4.15;;
78895;SDS011;68284;59.124;37.910;2023-08-30T09:15:50;4.28;;;3.08;;
78895;SDS011;68284;59.124;37.910;2023-08-30T09:18:16;4.07;;;3.65;;
78895;SDS011;68284;59.124;37.910;2023-08-30T09:20:43;6.82;;;4.50;;
78895;SDS011;68284;59.124;37.910;2023-08-30T09:23:22;4.78;;;4.38;;
78895;SDS011;68284;59.124;37.910;2023-08-30T09:25:54;4.72;;;4.22;;
78895;SDS011;68284;59.124;37.910;2023-08-30T09:31:16;4.05;;;3.10;;
78895;SDS011;68284;59.124;37.910;2023-08-30T09:33:45;5.75;;;3.28;;
78895;SDS011;68284;59.124;37.910;2023-08-30T09:36:19;4.60;;;3.53;;
78895;SDS011;68284;59.124;37.910;2023-08-30T09:38:48;4.45;;;3.40;;
78895;SDS011;68284;59.124;37.910;2023-08-30T09:41:16;4.53;;;2.70;;
78895;SDS011;68284;59.124;37.910;2023-08-30T09:43:44;6.60;;;5.03;;
78895;SDS011;68284;59.124;37.910;2023-08-30T09:46:14;4.25;;;3.85;;
78895;SDS011;68284;59.124;37.910;2023-08-30T09:48:41;4.55;;;3.97;;
78895;SDS011;68284;59.124;37.910;2023-08-30T09:51:08;4.88;;;4.47;;
78895;SDS011;68284;59.124;37.910;2023-08-30T09:53:40;4.97;;;3.53;;
78895;SDS011;68284;59.124;37.910;2023-08-30T09:56:11;5.35;;;3.60;;
78895;SDS011;68284;59.124;37.910;2023-08-30T09:58:41;5.70;;;3.80;;
78895;SDS011;68284;59.124;37.910;2023-08-30T10:01:09;4.50;;;3.85;;
78895;SDS011;68284;59.124;37.910;2023-08-30T10:03:36;4.85;;;4.35;;
78895;SDS011;68284;59.124;37.910;2023-08-30T10:06:03;4.65;;;3.92;;
78895;SDS011;68284;59.124;37.910;2023-08-30T10:08:31;5.35;;;4.13;;
78895;SDS011;68284;59.124;37.910;2023-08-30T10:10:59;5.70;;;5.20;;
78895;SDS011;68284;59.124;37.910;2023-08-30T10:13:31;5.07;;;4.38;;
78895;SDS011;68284;59.124;37.910;2023-08-30T10:16:01;6.72;;;5.15;;
78895;SDS011;68284;59.124;37.910;2023-08-30T10:18:29;5.53;;;4.55;;
78895;SDS011;68284;59.124;37.910;2023-08-30T10:20:59;5.43;;;4.03;;
78895;SDS011;68284;59.124;37.910;2023-08-30T10:23:34;7.72;;;4.43;;
78895;SDS011;68284;59.124;37.910;2023-08-30T10:26:07;6.72;;;4.38;;
78895;SDS011;68284;59.124;37.910;2023-08-30T10:28:36;6.88;;;5.97;;
78895;SDS011;68284;59.124;37.910;2023-08-30T10:31:04;7.25;;;5.82;;
78895;SDS011;68284;59.124;37.910;2023-08-30T10:33:32;5.43;;;4.53;;
78895;SDS011;68284;59.124;37.910;2023-08-30T10:36:05;7.60;;;4.93;;
78895;SDS011;68284;59.124;37.910;2023-08-30T10:38:32;8.25;;;4.70;;
78895;SDS011;68284;59.124;37.910;2023-08-30T10:41:06;6.40;;;3.90;;
78895;SDS011;68284;59.124;37.910;2023-08-30T10:43:34;7.30;;;4.88;;
78895;SDS011;68284;59.124;37.910;2023-08-30T10:46:02;9.55;;;4.95;;
78895;SDS011;68284;59.124;37.910;2023-08-30T10:48:36;10.32;;;5.65;;
78895;SDS011;68284;59.124;37.910;2023-08-30T10:51:06;5.38;;;4.68;;
78895;SDS011;68284;59.124;37.910;2023-08-30T10:53:58;4.40;;;3.42;;
78895;SDS011;68284;59.124;37.910;2023-08-30T10:56:30;6.55;;;4.00;;
78895;SDS011;68284;59.124;37.910;2023-08-30T10:58:58;6.60;;;4.65;;
78895;SDS011;68284;59.124;37.910;2023-08-30T11:01:25;5.00;;;4.43;;
78895;SDS011;68284;59.124;37.910;2023-08-30T11:03:52;3.85;;;3.20;;
78895;SDS011;68284;59.124;37.910;2023-08-30T11:06:20;7.53;;;4.93;;
78895;SDS011;68284;59.124;37.910;2023-08-30T11:08:48;8.65;;;4.28;;
78895;SDS011;68284;59.124;37.910;2023-08-30T11:11:16;4.60;;;3.65;;
78895;SDS011;68284;59.124;37.910;2023-08-30T11:13:46;5.82;;;4.50;;
78895;SDS011;68284;59.124;37.910;2023-08-30T11:16:13;4.82;;;3.70;;
78895;SDS011;68284;59.124;37.910;2023-08-30T11:18:49;5.03;;;3.53;;
78895;SDS011;68284;59.124;37.910;2023-08-30T11:21:16;3.45;;;2.85;;
78895;SDS011;68284;59.124;37.910;2023-08-30T11:23:42;3.90;;;3.50;;
78895;SDS011;68284;59.124;37.910;2023-08-30T11:26:08;4.43;;;3.70;;
78895;SDS011;68284;59.124;37.910;2023-08-30T11:28:38;4.68;;;3.58;;
78895;SDS011;68284;59.124;37.910;2023-08-30T11:31:17;11.80;;;3.75;;
78895;SDS011;68284;59.124;37.910;2023-08-30T11:33:57;4.28;;;3.80;;
78895;SDS011;68284;59.124;37.910;2023-08-30T11:36:28;3.15;;;2.85;;
78895;SDS011;68284;59.124;37.910;2023-08-30T11:38:56;5.28;;;3.67;;
78895;SDS011;68284;59.124;37.910;2023-08-30T11:41:23;3.65;;;2.92;;
78895;SDS011;68284;59.124;37.910;2023-08-30T11:43:51;7.22;;;3.67;;
78895;SDS011;68284;59.124;37.910;2023-08-30T11:46:18;3.67;;;2.80;;
78895;SDS011;68284;59.124;37.910;2023-08-30T11:48:48;7.30;;;3.00;;
78895;SDS011;68284;59.124;37.910;2023-08-30T11:51:16;3.10;;;2.60;;
78895;SDS011;68284;59.124;37.910;2023-08-30T11:53:44;2.80;;;2.60;;
78895;SDS011;68284;59.124;37.910;2023-08-30T11:56:11;12.25;;;2.63;;
78895;SDS011;68284;59.124;37.910;2023-08-30T11:58:38;3.60;;;2.45;;
78895;SDS011;68284;59.124;37.910;2023-08-30T12:01:04;5.70;;;2.95;;
78895;SDS011;68284;59.124;37.910;2023-08-30T12:03:31;5.00;;;2.63;;
78895;SDS011;68284;59.124;37.910;2023-08-30T12:05:58;3.03;;;2.60;;
78895;SDS011;68284;59.124;37.910;2023-08-30T12:08:25;2.55;;;2.35;;
78895;SDS011;68284;59.124;37.910;2023-08-30T12:10:55;5.75;;;2.42;;
78895;SDS011;68284;59.124;37.910;2023-08-30T12:13:31;2.90;;;2.10;;
78895;SDS011;68284;59.124;37.910;2023-08-30T12:15:59;2.65;;;2.45;;
78895;SDS011;68284;59.124;37.910;2023-08-30T12:18:34;5.03;;;2.75;;
78895;SDS011;68284;59.124;37.910;2023-08-30T12:21:05;3.15;;;2.92;;
78895;SDS011;68284;59.124;37.910;2023-08-30T12:23:34;3.42;;;2.30;;
78895;SDS011;68284;59.124;37.910;2023-08-30T12:26:01;3.83;;;2.40;;
78895;SDS011;68284;59.124;37.910;2023-08-30T12:28:38;3.63;;;2.75;;
78895;SDS011;68284;59.124;37.910;2023-08-30T12:31:10;4.03;;;2.65;;
78895;SDS011;68284;59.124;37.910;2023-08-30T12:33:37;3.13;;;2.75;;
78895;SDS011;68284;59.124;37.910;2023-08-30T12:36:05;3.55;;;3.05;;
78895;SDS011;68284;59.124;37.910;2023-08-30T12:38:32;3.60;;;3.25;;
78895;SDS011;68284;59.124;37.910;2023-08-30T12:40:59;3.25;;;2.72;;
78895;SDS011;68284;59.124;37.910;2023-08-30T12:43:26;4.18;;;2.85;;
78895;SDS011;68284;59.124;37.910;2023-08-30T12:45:52;3.75;;;2.60;;
78895;SDS011;68284;59.124;37.910;2023-08-30T12:48:19;2.90;;;2.20;;
78895;SDS011;68284;59.124;37.910;2023-08-30T12:50:46;7.43;;;2.40;;
78895;SDS011;68284;59.124;37.910;2023-08-30T12:53:14;2.85;;;2.50;;
78895;SDS011;68284;59.124;37.910;2023-08-30T12:55:43;3.85;;;3.50;;
78895;SDS011;68284;59.124;37.910;2023-08-30T12:58:13;4.82;;;3.00;;
78895;SDS011;68284;59.124;37.910;2023-08-30T13:00:44;2.65;;;2.45;;
78895;SDS011;68284;59.124;37.910;2023-08-30T13:03:13;2.88;;;2.65;;
78895;SDS011;68284;59.124;37.910;2023-08-30T13:05:41;2.95;;;2.05;;
78895;SDS011;68284;59.124;37.910;2023-08-30T13:08:09;3.20;;;2.90;;
78895;SDS011;68284;59.124;37.910;2023-08-30T13:10:35;2.63;;;2.42;;
78895;SDS011;68284;59.124;37.910;2023-08-30T13:13:02;2.90;;;1.50;;
78895;SDS011;68284;59.124;37.910;2023-08-30T13:15:29;6.72;;;2.53;;
78895;SDS011;68284;59.124;37.910;2023-08-30T13:17:55;4.63;;;2.90;;
78895;SDS011;68284;59.124;37.910;2023-08-30T13:20:22;4.22;;;2.30;;
78895;SDS011;68284;59.124;37.910;2023-08-30T13:22:51;4.18;;;2.92;;
78895;SDS011;68284;59.124;37.910;2023-08-30T13:25:17;3.08;;;2.42;;
78895;SDS011;68284;59.124;37.910;2023-08-30T13:27:44;2.67;;;2.28;;
78895;SDS011;68284;59.124;37.910;2023-08-30T13:30:10;2.25;;;1.90;;
78895;SDS011;68284;59.124;37.910;2023-08-30T13:32:37;1.90;;;1.80;;
78895;SDS011;68284;59.124;37.910;2023-08-30T13:35:05;2.45;;;2.10;;
78895;SDS011;68284;59.124;37.910;2023-08-30T13:37:31;3.75;;;2.13;;
78895;SDS011;68284;59.124;37.910;2023-08-30T13:39:58;5.65;;;4.65;;
78895;SDS011;68284;59.124;37.910;2023-08-30T13:42:25;5.03;;;2.90;;
78895;SDS011;68284;59.124;37.910;2023-08-30T13:44:53;2.95;;;2.65;;
78895;SDS011;68284;59.124;37.910;2023-08-30T13:47:19;3.03;;;2.50;;
78895;SDS011;68284;59.124;37.910;2023-08-30T13:49:46;3.88;;;2.60;;
78895;SDS011;68284;59.124;37.910;2023-08-30T13:52:13;4.70;;;2.50;;
78895;SDS011;68284;59.124;37.910;2023-08-30T13:54:40;3.80;;;2.50;;
78895;SDS011;68284;59.124;37.910;2023-08-30T13:57:10;4.85;;;2.15;;
78895;SDS011;68284;59.124;37.910;2023-08-30T13:59:36;8.35;;;3.05;;
78895;SDS011;68284;59.124;37.910;2023-08-30T14:02:03;8.93;;;7.82;;
78895;SDS011;68284;59.124;37.910;2023-08-30T14:04:34;4.07;;;2.03;;
78895;SDS011;68284;59.124;37.910;2023-08-30T14:07:03;8.18;;;3.10;;
78895;SDS011;68284;59.124;37.910;2023-08-30T14:09:31;6.45;;;3.97;;
78895;SDS011;68284;59.124;37.910;2023-08-30T14:11:58;5.90;;;3.10;;
78895;SDS011;68284;59.124;37.910;2023-08-30T14:14:28;4.85;;;2.83;;
78895;SDS011;68284;59.124;37.910;2023-08-30T14:16:55;6.82;;;2.72;;
78895;SDS011;68284;59.124;37.910;2023-08-30T14:19:33;8.93;;;2.53;;
78895;SDS011;68284;59.124;37.910;2023-08-30T14:22:03;7.30;;;3.42;;
78895;SDS011;68284;59.124;37.910;2023-08-30T14:24:32;5.97;;;2.90;;
78895;SDS011;68284;59.124;37.910;2023-08-30T14:27:03;6.32;;;3.13;;
78895;SDS011;68284;59.124;37.910;2023-08-30T14:29:30;5.88;;;4.13;;
78895;SDS011;68284;59.124;37.910;2023-08-30T14:31:57;6.00;;;3.40;;
78895;SDS011;68284;59.124;37.910;2023-08-30T14:34:24;7.13;;;3.08;;
78895;SDS011;68284;59.124;37.910;2023-08-30T14:36:51;5.40;;;4.13;;
78895;SDS011;68284;59.124;37.910;2023-08-30T14:39:19;8.15;;;3.25;;
78895;SDS011;68284;59.124;37.910;2023-08-30T14:41:47;7.18;;;4.55;;
78895;SDS011;68284;59.124;37.910;2023-08-30T14:44:13;8.68;;;5.47;;
78895;SDS011;68284;59.124;37.910;2023-08-30T14:46:41;9.65;;;5.57;;
78895;SDS011;68284;59.124;37.910;2023-08-30T14:49:08;9.68;;;5.60;;
78895;SDS011;68284;59.124;37.910;2023-08-30T14:51:34;7.70;;;5.30;;
78895;SDS011;68284;59.124;37.910;2023-08-30T14:54:01;6.40;;;4.90;;
78895;SDS011;68284;59.124;37.910;2023-08-30T14:56:27;8.68;;;4.55;;
78895;SDS011;68284;59.124;37.910;2023-08-30T14:58:53;6.05;;;5.10;;
78895;SDS011;68284;59.124;37.910;2023-08-30T15:01:20;10.05;;;4.43;;
78895;SDS011;68284;59.124;37.910;2023-08-30T15:03:52;10.02;;;4.95;;